Weather History for KEBG - December, 2013

Change the Weather History Date:

Thursday, December 26, 2013

  Actual Average (KMFE) Record (KMFE)
Temperature  
Mean Temperature 57 °F 60 °F  
Max Temperature 61 °F 70 °F 91 °F (1964)
Min Temperature 53 °F 51 °F 18 °F (1920)
Degree Days  
Heating Degree Days 8 7  
Month to date heating degree days 143  
Since 1 July heating degree days 203  
Cooling Degree Days 0 2  
Month to date cooling degree days 72  
Year to date cooling degree days 4441  
Growing Degree Days 7 (Base 50)    
Moisture  
Dew Point 54 °F    
Average Humidity 91    
Maximum Humidity 92    
Minimum Humidity 89    
Precipitation  
Precipitation 0.65 in 0.04 in 0.78 in (2013)
Month to date precipitation 0.98  
Year to date precipitation 21.99  
Sea Level Pressure  
Sea Level Pressure 30.31 in    
Wind  
Wind Speed 6 mph (North)    
Max Wind Speed 10 mph    
Max Gust Speed -    
Visibility 5 miles    
Events Rain    
T = Trace of Precipitation, MM = Missing Value Source: NWS Daily Summary

Daily Weather History Graph

Daily Weather History Graph

Search for Another Location

Airport or City:

Trip Planner

Search our weather history database for the weather conditions in past years. The results will help you decide how hot, cold, wet, or windy it might be!

Date:

Astronomy

Dec. 26, 2013 Rise Set
Actual Time 7:18 AM CST 5:48 PM CST
Civil Twilight 6:53 AM CST 6:13 PM CST
Nautical Twilight 6:24 AM CST 6:42 PM CST
Astronomical Twilight 5:56 AM CST 7:10 PM CST
Moon 1:12 AM CST (12/26) 1:02 PM CST (12/26)
Length of Visible Light 11h 20m
Length of Day
10h 29m
Last Quarter, 38% of the Moon is Illuminated
Dec 26
Last Quarter
Jan 1
New
Jan 7
First Quarter
Jan 15
Full
Jan 23
Last Quarter

Hourly Weather History & Observations

Time (CST) Temp. Dew Point Humidity Pressure Visibility Wind Dir Wind Speed Gust Speed Precip Events Conditions
12:15 AM 61.9 °F 58.5 °F 89% 30.28 in 10.0 mi North 5.8 mph - 0.01 in Rain Rain
12:35 AM 61.7 °F 58.5 °F 89% 30.28 in 10.0 mi North 4.6 mph - 0.01 in   Overcast
12:55 AM 61.7 °F 58.6 °F 90% 30.28 in 7.0 mi Calm Calm - 0.01 in   Light Drizzle
1:15 AM 61.7 °F 58.6 °F 90% 30.27 in 10.0 mi NNE 3.5 mph - N/A   Overcast
1:35 AM 61.7 °F 58.6 °F 90% 30.28 in 10.0 mi Calm Calm - N/A   Overcast
1:55 AM 61.3 °F 58.5 °F 90% 30.27 in 10.0 mi North 8.1 mph - N/A Rain Light Rain
2:15 AM 61.2 °F 58.3 °F 90% 30.26 in 10.0 mi North 6.9 mph - N/A   Light Drizzle
2:35 AM 61.2 °F 58.3 °F 90% 30.26 in 10.0 mi North 5.8 mph - N/A   Light Drizzle
2:55 AM 61.2 °F 58.3 °F 90% 30.26 in 10.0 mi NNE 4.6 mph - N/A   Light Drizzle
3:15 AM 61.2 °F 58.5 °F 91% 30.25 in 10.0 mi North 5.8 mph - N/A   Overcast
3:35 AM 61.2 °F 58.5 °F 91% 30.25 in 10.0 mi NNE 5.8 mph - N/A   Overcast
3:55 AM 61.3 °F 58.6 °F 91% 30.25 in 10.0 mi Calm Calm - N/A   Overcast
4:15 AM 61.3 °F 58.6 °F 91% 30.25 in 10.0 mi Calm Calm - N/A   Overcast
4:35 AM 61.3 °F 58.6 °F 91% 30.25 in 10.0 mi NNE 5.8 mph - N/A   Overcast
4:55 AM 61.3 °F 58.6 °F 91% 30.25 in 10.0 mi NNE 3.5 mph - N/A   Overcast
5:15 AM 61.3 °F 58.6 °F 91% 30.26 in 10.0 mi Calm Calm - N/A   Overcast
5:35 AM 61.7 °F 59.0 °F 91% 30.27 in 10.0 mi North 3.5 mph - N/A   Overcast
5:55 AM 61.0 °F 58.3 °F 91% 30.27 in 7.0 mi North 5.8 mph - N/A   Drizzle
6:15 AM 60.8 °F 57.9 °F 90% 30.28 in 7.0 mi North 5.8 mph - N/A   Light Drizzle
6:35 AM 59.4 °F 56.7 °F 91% 30.28 in 7.0 mi North 8.1 mph - N/A   Overcast
6:55 AM 59.4 °F 56.7 °F 91% 30.28 in 10.0 mi North 8.1 mph - N/A   Overcast
7:15 AM 58.5 °F 55.6 °F 90% 30.29 in 10.0 mi North 9.2 mph - N/A Rain Light Rain
7:35 AM 58.3 °F 55.6 °F 91% 30.30 in 10.0 mi North 9.2 mph - N/A Rain Rain
7:55 AM 58.3 °F 55.4 °F 90% 30.31 in 7.0 mi North 8.1 mph - 0.04 in Rain Rain
8:15 AM 58.1 °F 55.4 °F 91% 30.32 in 7.0 mi North 9.2 mph - N/A   Drizzle
8:35 AM 57.9 °F 55.2 °F 91% 30.33 in 5.0 mi North 9.2 mph - N/A   Overcast
8:55 AM 57.7 °F 55.0 °F 91% 30.33 in 3.0 mi North 9.2 mph - N/A Rain Rain
9:15 AM 57.7 °F 55.0 °F 91% 30.34 in 3.0 mi North 8.1 mph - N/A   Drizzle
9:35 AM 57.6 °F 54.9 °F 91% 30.34 in 3.0 mi North 10.4 mph - 0.01 in Rain Rain
9:55 AM 57.2 °F 54.5 °F 91% 30.35 in 2.5 mi North 9.2 mph - 0.02 in   Drizzle
10:15 AM 57.2 °F 54.5 °F 91% 30.35 in 5.0 mi NNE 8.1 mph - N/A   Light Drizzle
10:35 AM 56.7 °F 54.0 °F 91% 30.35 in 5.0 mi North 10.4 mph - N/A   Overcast
10:55 AM 56.5 °F 53.8 °F 91% 30.35 in 7.0 mi North 10.4 mph - N/A   Drizzle
11:15 AM 56.3 °F 53.6 °F 91% 30.35 in 7.0 mi North 9.2 mph - N/A   Drizzle
11:35 AM 56.3 °F 53.6 °F 91% 30.35 in 3.0 mi North 8.1 mph - N/A   Light Drizzle
11:55 AM 55.6 °F 52.9 °F 91% 30.34 in 4.0 mi North 8.1 mph - 0.01 in   Overcast
12:15 PM 55.4 °F 52.7 °F 91% 30.33 in 3.0 mi North 9.2 mph - N/A   Light Drizzle
12:35 PM 55.4 °F 52.7 °F 91% 30.32 in 4.0 mi North 8.1 mph - N/A   Overcast
12:55 PM 55.2 °F 52.5 °F 91% 30.31 in 3.0 mi North 8.1 mph - N/A   Overcast
1:15 PM 55.0 °F 52.3 °F 91% 30.30 in 2.5 mi North 6.9 mph - N/A Rain Light Rain
1:35 PM 54.9 °F 52.2 °F 91% 30.29 in 2.5 mi North 10.4 mph - N/A   Drizzle
1:55 PM 54.5 °F 52.0 °F 91% 30.29 in 2.0 mi North 9.2 mph - 0.01 in Rain Rain
2:15 PM 54.5 °F 51.8 °F 91% 30.29 in 2.0 mi North 10.4 mph - 0.01 in Rain Light Rain
2:35 PM 54.5 °F 51.8 °F 91% 30.29 in 2.5 mi North 9.2 mph - 0.02 in   Drizzle
2:55 PM 54.3 °F 51.8 °F 91% 30.29 in 2.5 mi NNW 8.1 mph - 0.02 in   Drizzle
3:15 PM 54.5 °F 51.8 °F 91% 30.30 in 4.0 mi NNW 3.5 mph - 0.01 in   Overcast
3:35 PM 54.5 °F 51.8 °F 91% 30.30 in 4.0 mi NW 4.6 mph - 0.01 in   Overcast
3:55 PM 54.7 °F 52.0 °F 91% 30.29 in 4.0 mi North 3.5 mph - 0.01 in   Drizzle
4:15 PM 54.9 °F 52.2 °F 91% 30.28 in 3.0 mi North 5.8 mph - N/A   Drizzle
4:35 PM 54.9 °F 52.2 °F 91% 30.30 in 2.5 mi NNW 8.1 mph - N/A Rain Rain
4:55 PM 54.9 °F 52.2 °F 91% 30.29 in 2.5 mi North 8.1 mph - N/A Rain Rain
5:15 PM 55.0 °F 52.3 °F 91% 30.30 in 2.0 mi NNW 6.9 mph - 0.01 in Rain Rain
5:35 PM 54.7 °F 52.0 °F 91% 30.30 in 3.0 mi NNW 6.9 mph - 0.02 in Rain Light Rain
5:55 PM 54.7 °F 52.0 °F 91% 30.31 in 3.0 mi NNW 6.9 mph - 0.04 in Rain Light Rain
6:15 PM 54.5 °F 51.8 °F 91% 30.31 in 3.0 mi North 8.1 mph - 0.01 in Rain Rain
6:35 PM 54.5 °F 51.8 °F 91% 30.31 in 3.0 mi NNW 9.2 mph - 0.03 in Rain Light Rain
6:55 PM 54.1 °F 51.8 °F 92% 30.31 in 3.0 mi NNW 8.1 mph - 0.04 in Rain Light Rain
7:15 PM 53.8 °F 51.3 °F 91% 30.31 in 3.0 mi North 8.1 mph - N/A Rain Light Rain
7:35 PM 54.0 °F 51.4 °F 91% 30.32 in 3.0 mi NNW 6.9 mph - 0.01 in Rain Light Rain
7:55 PM 54.0 °F 51.4 °F 91% 30.33 in 3.0 mi NNW 6.9 mph - 0.02 in Rain Rain
8:15 PM 54.0 °F 51.4 °F 91% 30.33 in 4.0 mi NNW 8.1 mph - 0.01 in Rain Light Rain
8:35 PM 54.0 °F 51.4 °F 91% 30.33 in 3.0 mi NNW 9.2 mph - 0.03 in Rain Light Rain
8:55 PM 54.0 °F 51.4 °F 91% 30.33 in 3.0 mi NNW 6.9 mph - 0.05 in Rain Light Rain
9:15 PM 53.8 °F 51.3 °F 91% 30.34 in 3.0 mi NNW 6.9 mph - 0.04 in Rain Rain
9:35 PM 53.8 °F 51.3 °F 91% 30.34 in 3.0 mi NNW 8.1 mph - 0.06 in Rain Rain
9:55 PM 53.6 °F 51.1 °F 91% 30.35 in 3.0 mi NW 5.8 mph - 0.09 in Rain Rain
10:15 PM 53.6 °F 50.9 °F 91% 30.35 in 3.0 mi NNW 5.8 mph - 0.04 in Rain Rain
10:35 PM 53.6 °F 50.9 °F 91% 30.35 in 3.0 mi NNW 5.8 mph - 0.07 in Rain Rain
10:55 PM 53.6 °F 50.9 °F 91% 30.36 in 3.0 mi NW 5.8 mph - 0.11 in Rain Rain
11:15 PM 53.1 °F 50.7 °F 92% 30.36 in 3.0 mi NNW 5.8 mph - 0.07 in Rain Heavy Rain
11:35 PM 53.1 °F 50.5 °F 91% 30.35 in 3.0 mi NNW 6.9 mph - 0.13 in Rain Rain
11:55 PM 53.1 °F 50.5 °F 91% 30.35 in 3.0 mi NNW 4.6 mph - 0.18 in Rain Rain